Latest Weather Observations for Albany Airport

IDW60801

Issued at 6:05 pm WST Wednesday 23 April 2014 (issued every 30 minutes, with the page automatically refreshed every 10 minutes)

About weather observations | Map of weather stations | Latest weather observations for WA | Other Formats
Station Details ID: 009999 Name: ALBANY AIRPORT Lat: -34.94 Lon: 117.82 Height: 68.4 m
Data from the previous 72 hours. | See also: Recent months at Albany Airport
Date/Time
WST
Temp
°C
App
Temp
°C
Dew
Point
Rel
Hum
%
Delta-T
°C
Wind Press
QNH
hPa
Press
MSL
hPa
Rain
since 9 am
mm
Dir
 
Spd
km/h
Gust
km/h
Spd
kts
Gust
kts
23/06:00pm 15.5 14.2 11.4 76 2.2 S 9 11 5 6 1017.5 1017.5 0.0
23/05:30pm 16.6 15.7 11.4 71 2.8 S 7 9 4 5 1017.2 - 0.0
23/05:00pm 17.9 15.7 10.9 63 3.8 S 13 19 7 10 1016.9 - 0.0
23/04:30pm 19.0 16.3 10.2 56 4.7 S 15 20 8 11 1016.9 - 0.0
23/04:00pm 19.7 17.2 9.6 52 5.4 S 13 19 7 10 1016.8 - 0.0
23/03:30pm 19.7 16.8 9.8 52 5.3 SSW 15 20 8 11 1016.7 - 0.0
23/03:00pm 20.0 16.8 9.9 52 5.4 S 17 24 9 13 1016.7 1016.7 0.0
23/02:30pm 20.4 18.0 10.2 52 5.5 WSW 13 20 7 11 1016.7 - 0.0
23/02:00pm 19.8 17.0 10.1 53 5.2 SW 15 19 8 10 1016.9 - 0.0
23/01:30pm 20.1 17.6 9.8 51 5.5 WSW 13 20 7 11 1016.9 - 0.0
23/01:00pm 19.6 17.2 10.1 54 5.1 WSW 13 20 7 11 1017.1 - 0.0
23/12:00pm 18.9 17.1 10.8 59 4.4 SW 11 15 6 8 1017.6 1017.6 0.0
23/11:30am 19.0 16.9 11.1 60 4.3 SW 13 22 7 12 1017.8 - 0.0
23/11:00am 18.5 16.7 12.0 66 3.6 WSW 13 19 7 10 1018.1 - 0.0
23/10:30am 17.5 15.9 12.8 74 2.6 WNW 13 17 7 9 1018.2 - 0.0
23/10:00am 16.7 14.6 12.5 76 2.3 WSW 15 20 8 11 1018.2 - 0.0
23/09:30am 15.9 14.4 11.9 77 2.2 NW 11 13 6 7 1018.2 - 0.0
23/09:00am 14.2 12.4 12.0 87 1.2 WNW 13 19 7 10 1018.3 1018.3 0.0
23/08:30am 13.4 11.2 10.9 85 1.3 NW 13 17 7 9 1018.1 - 0.0
23/08:00am 11.9 9.6 10.5 91 0.7 WNW 13 17 7 9 1017.9 - 0.0
23/07:30am 9.6 8.6 9.0 96 0.3 NNW 4 7 2 4 1017.6 - 0.0
23/07:00am 9.3 6.5 8.7 96 0.3 NW 13 15 7 8 1017.3 - 0.0
23/06:30am 7.7 5.4 7.3 97 0.2 NW 9 13 5 7 1017.2 - 0.0
23/06:00am 7.0 4.6 6.8 99 0.1 NNE 9 11 5 6 1017.2 1017.2 0.0
23/05:30am 7.6 6.2 7.2 97 0.2 NW 4 6 2 3 1017.3 - 0.0
23/05:00am 7.8 5.1 7.2 96 0.3 NW 11 13 6 7 1017.3 - 0.0
23/04:30am 8.3 5.2 7.2 93 0.5 WNW 13 17 7 9 1017.1 - 0.0
23/04:00am 8.2 4.7 7.1 93 0.5 WNW 15 17 8 9 1017.0 - 0.0
23/03:30am 8.8 5.8 7.5 91 0.6 W 13 17 7 9 1017.1 - 0.0
23/03:00am 7.7 4.6 7.1 96 0.3 NW 13 17 7 9 1017.0 1017.0 0.0
23/02:30am 7.9 4.6 6.6 91 0.6 WNW 13 15 7 8 1017.3 - 0.0
23/02:00am 8.0 4.4 6.9 93 0.5 WNW 15 17 8 9 1017.6 - 0.0
23/01:30am 7.9 5.0 6.6 91 0.6 NW 11 13 6 7 1017.2 - 0.0
23/01:00am 8.6 5.5 7.3 91 0.6 NW 13 15 7 8 1017.4 - 0.0
23/12:30am 8.1 4.9 7.0 93 0.5 NW 13 15 7 8 1017.7 - 0.0
23/12:00am 8.4 6.1 7.3 93 0.5 NW 9 11 5 6 1017.8 1017.8 0.0
 
Date/Time
WST
Temp
°C
App
Temp
°C
Dew
Point
Rel
Hum
%
Delta-T
°C
Wind Press
QNH
hPa
Press
MSL
hPa
Rain
since 9 am
mm
Dir
 
Spd
km/h
Gust
km/h
Spd
kts
Gust
kts
22/11:30pm 8.8 6.0 7.1 89 0.8 NW 11 13 6 7 1018.0 - 0.0
22/11:00pm 9.2 5.7 7.3 88 0.9 WNW 15 15 8 8 1018.2 - 0.0
22/10:30pm 9.3 6.1 7.0 85 1.1 NW 13 13 7 7 1018.7 - 0.0
22/10:00pm 9.5 5.9 6.9 84 1.2 WNW 15 15 8 8 1018.7 - 0.0
22/09:30pm 10.0 6.8 7.0 81 1.4 WNW 13 13 7 7 1018.7 - 0.0
22/09:00pm 10.7 7.2 7.4 80 1.6 WNW 15 17 8 9 1018.3 1018.3 0.0
22/08:30pm 10.4 7.0 7.5 82 1.4 WNW 15 15 8 8 1018.3 - 0.0
22/08:00pm 11.1 8.5 7.8 80 1.6 W 11 13 6 7 1018.4 - 0.0
22/07:30pm 12.4 9.6 8.4 76 2.0 W 13 15 7 8 1018.3 - 0.0
22/07:00pm 13.5 11.1 8.5 72 2.5 W 11 11 6 6 1018.1 - 0.0
22/06:30pm 15.1 12.3 8.6 65 3.3 WSW 13 15 7 8 1017.9 - 0.0
22/06:00pm 15.5 12.6 8.2 62 3.7 WSW 13 17 7 9 1017.7 1017.7 0.0
22/05:30pm 17.1 13.2 7.3 52 4.9 SW 17 20 9 11 1017.6 - 0.0
22/05:00pm 18.6 14.3 6.8 46 5.9 WSW 19 24 10 13 1017.6 - 0.0
22/04:30pm 19.6 14.9 6.1 41 6.7 WSW 20 26 11 14 1017.7 - 0.0
22/04:00pm 20.5 15.9 5.6 37 7.4 WSW 19 24 10 13 1017.8 - 0.0
22/03:30pm 20.8 16.0 5.7 37 7.5 W 20 26 11 14 1018.0 - 0.0
22/03:00pm 21.1 16.8 5.4 36 7.8 W 17 22 9 12 1018.1 1018.1 0.0
22/02:30pm 21.3 15.6 4.8 34 8.1 WNW 24 28 13 15 1018.1 - 0.0
22/02:00pm 20.5 15.7 5.6 37 7.4 W 20 30 11 16 1018.2 - 0.0
22/01:30pm 21.0 15.9 5.8 37 7.6 W 22 28 12 15 1018.5 - 0.0
22/01:00pm 20.5 14.9 5.6 37 7.4 WNW 24 33 13 18 1019.0 - 0.0
22/12:30pm 20.7 14.7 5.3 36 7.6 NW 26 37 14 20 1019.4 - 0.0
22/12:00pm 19.7 14.1 5.2 38 7.1 WNW 24 32 13 17 1019.9 1019.9 0.0
22/11:30am 20.6 14.2 5.4 37 7.5 NW 28 35 15 19 1020.2 - 0.0
22/11:00am 19.8 14.5 7.0 43 6.5 WNW 24 33 13 18 1020.5 - 0.0
22/10:30am 19.0 14.3 7.6 47 5.8 NW 22 30 12 16 1020.8 - 0.0
22/10:00am 18.0 13.7 7.8 51 5.2 NW 20 28 11 15 1021.0 - 0.0
22/09:30am 16.6 12.4 8.1 57 4.3 NNW 20 26 11 14 1021.2 - 0.0
22/09:00am 15.1 10.9 8.1 63 3.5 NNW 20 24 11 13 1021.3 1021.3 0.2
22/08:30am 13.4 9.4 8.2 71 2.6 NNW 19 20 10 11 1021.4 - 0.2
22/08:00am 12.4 8.8 8.4 76 2.0 NW 17 20 9 11 1021.3 - 0.2
22/07:30am 9.8 6.8 7.9 88 0.9 NW 13 17 7 9 1021.2 - 0.2
22/07:00am 8.8 5.4 7.5 91 0.6 W 15 17 8 9 1021.1 - 0.2
22/06:30am 9.8 6.0 7.5 85 1.1 NW 17 20 9 11 1020.8 - 0.2
22/06:00am 9.9 6.3 8.5 91 0.7 NW 17 20 9 11 1020.8 1020.8 0.2
22/05:30am 9.5 6.4 8.7 95 0.4 NW 15 20 8 11 1020.8 - 0.2
22/05:00am 8.4 5.0 7.8 96 0.3 NW 15 19 8 10 1020.7 - 0.2
22/04:30am 8.8 6.0 8.4 97 0.2 NW 13 15 7 8 1020.7 - 0.2
22/04:00am 7.1 3.9 6.9 99 0.1 NW 13 15 7 8 1020.6 - 0.2
22/03:30am 7.0 3.7 6.6 97 0.2 NW 13 15 7 8 1020.4 - 0.2
22/03:00am 7.4 4.2 7.0 97 0.2 WNW 13 13 7 7 1020.5 1020.5 0.2
22/02:30am 7.0 4.4 6.3 95 0.3 NW 9 11 5 6 1020.4 - 0.2
22/02:00am 7.0 4.5 6.6 97 0.2 NNW 9 11 5 6 1020.4 - 0.2
22/01:30am 5.6 2.7 4.9 95 0.3 N 9 11 5 6 1020.6 - 0.2
22/01:00am 6.6 3.5 5.7 94 0.4 NW 11 13 6 7 1020.6 - 0.2
22/12:30am 7.1 4.1 6.2 94 0.4 WNW 11 13 6 7 1020.6 - 0.2
22/12:00am 6.7 5.7 5.8 94 0.4 CALM 0 0 0 0 1020.9 1020.9 0.2
 
Date/Time
WST
Temp
°C
App
Temp
°C
Dew
Point
Rel
Hum
%
Delta-T
°C
Wind Press
QNH
hPa
Press
MSL
hPa
Rain
since 9 am
mm
Dir
 
Spd
km/h
Gust
km/h
Spd
kts
Gust
kts
21/11:30pm 6.5 4.4 5.6 94 0.4 NNE 6 7 3 4 1020.9 - 0.2
21/11:00pm 6.7 3.9 5.3 91 0.6 WNW 9 11 5 6 1021.0 - 0.2
21/10:30pm 7.8 5.8 6.3 90 0.7 NW 6 7 3 4 1021.1 - 0.2
21/10:00pm 8.0 7.0 5.8 86 1.0 CALM 0 4 0 2 1021.3 - 0.2
21/09:30pm 8.6 5.3 6.4 86 1.0 NW 13 15 7 8 1021.3 - 0.2
21/09:00pm 7.9 5.7 6.4 90 0.7 NW 7 13 4 7 1021.4 1021.4 0.2
21/08:30pm 8.6 6.7 6.7 88 0.9 NNW 6 7 3 4 1021.2 - 0.2
21/08:00pm 9.7 7.7 6.9 83 1.3 WNW 7 9 4 5 1021.1 - 0.2
21/07:30pm 10.5 8.5 6.9 78 1.7 W 7 9 4 5 1021.0 - 0.2
21/07:00pm 12.3 9.5 7.1 70 2.5 WSW 11 13 6 7 1020.8 - 0.2
21/06:30pm 13.1 10.2 6.6 64 3.1 WSW 11 13 6 7 1020.7 - 0.2
21/06:00pm 13.7 10.9 6.9 63 3.3 WSW 11 15 6 8 1020.4 1020.4 0.2
21/05:30pm 15.4 12.1 6.6 55 4.3 SW 13 19 7 10 1020.0 - 0.2
21/05:00pm 16.7 12.1 5.7 48 5.3 SW 19 24 10 13 1019.9 - 0.2
21/04:30pm 17.4 12.6 5.4 45 5.8 SW 20 28 11 15 1019.7 - 0.2
21/04:00pm 18.5 13.8 5.9 43 6.2 SW 20 30 11 16 1019.5 - 0.2
21/03:30pm 18.8 14.0 5.8 42 6.4 SW 20 28 11 15 1019.5 - 0.2
21/03:00pm 18.1 13.3 5.8 44 6.0 WSW 20 28 11 15 1019.4 1019.4 0.2
21/02:30pm 17.7 13.6 6.3 47 5.6 SSW 17 24 9 13 1019.1 - 0.2
21/02:00pm 17.6 14.2 7.5 51 5.1 SW 15 24 8 13 1019.0 - 0.2
21/01:30pm 17.5 13.7 7.6 52 5.0 SW 17 26 9 14 1019.0 - 0.2
21/01:00pm 16.9 12.8 7.8 55 4.6 SW 19 28 10 15 1019.1 - 0.2
21/12:30pm 16.6 13.1 8.8 60 4.0 SW 17 24 9 13 1019.2 - 0.2
21/12:00pm 17.0 14.8 10.8 67 3.3 S 13 20 7 11 1019.5 1019.5 0.2
21/11:30am 14.5 12.6 11.9 84 1.4 S 13 17 7 9 1019.8 - 0.2
21/11:00am 14.8 10.6 11.2 79 1.9 SW 24 30 13 16 1019.9 - 0.0
21/10:30am 16.9 14.3 7.8 55 4.6 W 11 15 6 8 1019.7 - 0.0
21/10:00am 16.8 14.9 11.7 72 2.8 WNW 13 17 7 9 1019.7 - 0.0
21/09:30am 16.0 13.1 12.2 78 2.1 WNW 19 22 10 12 1019.5 - 0.0
21/09:00am 13.3 11.3 11.6 89 0.9 WNW 13 17 7 9 1019.5 1019.5 1.4
21/08:30am 12.7 10.8 11.8 94 0.5 WNW 13 17 7 9 1019.4 - 1.4
21/08:00am 12.1 10.1 11.5 96 0.3 WNW 13 15 7 8 1019.1 - 1.4
21/07:30am 10.7 9.5 10.3 97 0.2 NNW 7 9 4 5 1018.6 - 1.4
21/07:00am 10.7 9.7 10.3 97 0.2 NW 6 11 3 6 1018.2 - 1.4
21/06:30am 10.1 9.0 9.9 99 0.1 N 6 7 3 4 1018.0 - 1.2
21/06:00am 10.2 8.5 10.0 99 0.1 NW 9 11 5 6 1017.8 1017.8 1.2
21/05:30am 10.4 8.4 10.0 97 0.2 WNW 11 13 6 7 1017.6 - 1.2
21/05:00am 10.0 8.3 9.8 99 0.1 WNW 9 9 5 5 1017.2 - 1.2
21/04:30am 10.3 7.9 9.9 97 0.2 W 13 15 7 8 1016.9 - 1.2
21/04:00am 9.8 8.0 9.4 97 0.2 NNW 9 13 5 7 1016.6 - 1.2
21/03:30am 10.9 9.8 10.7 99 0.1 WNW 7 11 4 6 1016.6 - 1.2
21/03:26am 11.0 10.1 10.6 97 0.2 WNW 6 9 3 5 1016.6 - 1.2
21/03:10am 10.4 8.7 10.0 97 0.2 W 9 13 5 7 1016.7 - 1.0
21/03:00am 10.1 8.4 9.7 97 0.2 WNW 9 15 5 8 1016.7 1016.7 0.8
21/02:30am 9.8 8.0 9.4 97 0.2 WNW 9 13 5 7 1016.6 - 0.8
21/02:00am 9.4 9.2 9.0 97 0.2 CALM 0 0 0 0 1016.3 - 0.8
21/01:30am 9.9 8.5 9.5 97 0.2 WSW 7 11 4 6 1016.2 - 0.8
21/01:00am 9.8 8.6 9.4 97 0.2 W 6 9 3 5 1015.9 - 0.8
21/12:30am 10.8 9.6 10.4 97 0.2 WSW 7 11 4 6 1016.1 - 0.8
21/12:00am 10.3 9.0 9.9 97 0.2 WNW 7 9 4 5 1015.9 1015.9 0.8
 
Date/Time
WST
Temp
°C
App
Temp
°C
Dew
Point
Rel
Hum
%
Delta-T
°C
Wind Press
QNH
hPa
Press
MSL
hPa
Rain
since 9 am
mm
Dir
 
Spd
km/h
Gust
km/h
Spd
kts
Gust
kts
20/11:30pm 11.0 10.8 10.4 96 0.3 SSW 2 6 1 3 1015.7 - 0.8
20/11:00pm 12.4 11.5 11.5 94 0.5 WSW 7 9 4 5 1016.0 - 0.8
20/10:30pm 12.9 12.1 11.8 93 0.6 SSW 7 9 4 5 1016.0 - 0.8
20/10:00pm 13.3 12.2 12.0 92 0.7 SSW 9 13 5 7 1016.0 - 0.8
20/09:30pm 13.4 12.2 11.7 89 0.9 SSW 9 13 5 7 1015.8 - 0.6
20/09:00pm 13.0 11.4 11.5 91 0.8 W 11 13 6 7 1015.7 1015.7 0.6
20/08:30pm 14.2 12.9 12.4 89 1.0 WSW 11 11 6 6 1015.6 - 0.6
20/08:00pm 14.6 12.9 11.2 80 1.8 SW 11 15 6 8 1015.4 - 0.6
20/07:30pm 15.4 14.1 11.3 76 2.2 WSW 9 13 5 7 1015.3 - 0.6
20/07:00pm 15.3 14.0 11.2 76 2.2 W 9 11 5 6 1015.3 - 0.6
20/06:30pm 15.9 14.6 11.3 74 2.5 W 9 11 5 6 1015.0 - 0.6

Other Formats:

Comma delimited format used in spreadsheet applications
http://www.bom.gov.au/fwo/IDW60801/IDW60801.94802.axf

JavaScript Object Notation format (JSON) in row-major order
http://www.bom.gov.au/fwo/IDW60801/IDW60801.94802.json